Time;durP1;ratioP1;P1;durP2;ratioP2;P2;SDS_P1;SDS_P2;PMS_P1;PMS_P2;Temp;Humidity;BMP_temperature;BMP_pressure;BME280_temperature;BME280_humidity;BME280_pressure;Samples;Min_cycle;Max_cycle;Signal;HPM_P1;HPM_P2
2022/05/07 00:01:15;;;;;;;18.77;14.20;;;13.30;99.90;;;;;;5126608;28;20066;-64
2022/05/07 00:03:41;;;;;;;17.90;15.30;;;13.20;99.90;;;;;;5121252;28;20100;-64
2022/05/07 00:06:07;;;;;;;16.02;14.32;;;13.20;99.90;;;;;;5119825;28;20056;-64
2022/05/07 00:08:32;;;;;;;17.50;15.10;;;13.30;99.90;;;;;;5127683;28;20192;-64
2022/05/07 00:10:59;;;;;;;19.92;15.25;;;13.10;99.90;;;;;;5124949;28;20043;-64
2022/05/07 00:13:25;;;;;;;19.85;17.17;;;13.10;99.90;;;;;;5127007;28;20044;-64
2022/05/07 00:18:35;;;;;;;19.05;16.25;;;13.10;99.90;;;;;;5120880;28;20071;-64
2022/05/07 00:21:01;;;;;;;21.35;17.10;;;13.00;99.90;;;;;;5125741;28;20048;-64
2022/05/07 00:23:26;;;;;;;20.58;17.42;;;13.00;99.90;;;;;;5123381;28;20071;-64
2022/05/07 00:25:52;;;;;;;20.80;15.70;;;13.00;99.90;;;;;;5123997;28;20441;-64
2022/05/07 00:28:18;;;;;;;23.02;17.65;;;12.90;99.90;;;;;;5103423;28;20054;-64
2022/05/07 00:30:44;;;;;;;21.80;18.05;;;13.10;99.90;;;;;;5121969;28;20051;-64
2022/05/07 00:33:09;;;;;;;21.73;17.33;;;12.90;99.90;;;;;;5124163;28;20108;-64
2022/05/07 00:35:35;;;;;;;20.85;16.60;;;13.00;99.90;;;;;;5124372;28;20070;-64
2022/05/07 00:38:01;;;;;;;20.25;17.13;;;13.10;99.90;;;;;;5124884;28;20047;-64
2022/05/07 00:40:26;;;;;;;22.88;17.55;;;13.10;99.90;;;;;;5121375;28;20143;-64
2022/05/07 00:42:52;;;;;;;19.52;16.65;;;13.20;99.90;;;;;;5125805;28;20054;-64
2022/05/07 00:45:18;;;;;;;23.48;16.73;;;13.10;99.90;;;;;;5134796;27;20066;-64
2022/05/07 00:47:44;;;;;;;20.30;17.13;;;13.10;99.90;;;;;;5124818;28;20126;-64
2022/05/07 00:52:54;;;;;;;19.98;15.93;;;13.10;99.90;;;;;;5122103;28;20134;-64
2022/05/07 00:55:21;;;;;;;18.95;16.67;;;13.20;99.90;;;;;;5123478;28;20053;-64
2022/05/07 00:57:46;;;;;;;20.17;17.38;;;13.20;99.90;;;;;;5122389;28;20043;-64
2022/05/07 01:00:12;;;;;;;25.98;16.63;;;13.10;99.90;;;;;;5125134;28;20555;-64
2022/05/07 01:02:38;;;;;;;23.08;16.70;;;13.00;99.90;;;;;;5124432;28;20046;-64
2022/05/07 01:05:05;;;;;;;21.00;16.75;;;13.00;99.90;;;;;;5122545;28;20102;-64
2022/05/07 01:07:34;;;;;;;21.05;17.77;;;13.00;99.90;;;;;;5125875;28;20043;-64
2022/05/07 01:10:02;;;;;;;23.33;17.92;;;13.00;99.90;;;;;;5119361;28;20089;-64
2022/05/07 01:12:28;;;;;;;22.58;18.17;;;13.10;99.90;;;;;;5122733;28;20048;-64
2022/05/07 01:14:58;;;;;;;19.85;17.73;;;13.00;99.90;;;;;;5119943;28;20143;-64
2022/05/07 01:17:25;;;;;;;20.80;18.40;;;13.10;99.90;;;;;;5121754;28;20071;-64
2022/05/07 01:19:54;;;;;;;28.17;18.13;;;13.00;99.90;;;;;;5121265;28;20051;-64
2022/05/07 01:22:22;;;;;;;29.50;18.73;;;13.00;99.90;;;;;;5113371;28;20051;-64
2022/05/07 01:24:47;;;;;;;26.88;18.08;;;13.20;99.90;;;;;;5125941;28;20090;-64
2022/05/07 01:27:13;;;;;;;24.70;18.05;;;13.10;99.90;;;;;;5125154;28;20027;-64
2022/05/07 01:29:39;;;;;;;30.67;20.88;;;13.20;99.90;;;;;;5124198;28;20099;-64
2022/05/07 01:32:05;;;;;;;28.58;19.73;;;13.10;99.90;;;;;;5117911;28;20099;-64
2022/05/07 01:34:31;;;;;;;24.48;17.70;;;13.00;99.90;;;;;;5123800;28;20134;-64
2022/05/07 01:36:56;;;;;;;27.77;18.30;;;13.10;99.90;;;;;;5124912;28;20044;-64
2022/05/07 01:39:22;;;;;;;24.42;16.98;;;13.00;99.90;;;;;;5124262;28;20104;-64
2022/05/07 01:41:47;;;;;;;23.05;17.90;;;13.00;99.90;;;;;;5123875;28;20108;-64
2022/05/07 01:44:13;;;;;;;22.50;17.42;;;13.20;99.90;;;;;;5121016;28;20039;-64
2022/05/07 01:49:23;;;;;;;19.60;16.23;;;13.00;99.90;;;;;;5120616;28;20055;-64
2022/05/07 01:51:49;;;;;;;25.65;18.20;;;13.00;99.90;;;;;;5117514;28;20051;-64
2022/05/07 01:54:14;;;;;;;20.80;17.83;;;12.90;99.90;;;;;;5125560;28;20067;-64
2022/05/07 01:56:40;;;;;;;25.65;19.55;;;13.20;99.90;;;;;;5119783;28;20044;-64
2022/05/07 01:59:06;;;;;;;26.23;19.98;;;13.00;99.90;;;;;;5122991;28;20047;-64
2022/05/07 02:01:32;;;;;;;25.75;19.45;;;13.00;99.90;;;;;;5141347;27;20047;-64
2022/05/07 02:03:57;;;;;;;23.80;19.58;;;13.10;99.90;;;;;;5118924;28;20036;-64
2022/05/07 02:06:23;;;;;;;22.38;19.98;;;13.10;99.90;;;;;;5123499;28;20100;-64
2022/05/07 02:08:48;;;;;;;29.33;21.05;;;13.10;99.90;;;;;;5120616;28;20048;-64
2022/05/07 02:11:14;;;;;;;28.58;21.15;;;13.00;99.90;;;;;;5124208;28;20055;-64
2022/05/07 02:13:40;;;;;;;25.00;20.70;;;13.10;99.90;;;;;;5125312;28;20052;-64
2022/05/07 02:16:06;;;;;;;22.77;19.27;;;13.00;99.90;;;;;;5121959;28;20653;-64
2022/05/07 02:18:31;;;;;;;23.40;20.88;;;13.00;99.90;;;;;;5124739;28;20263;-64
2022/05/07 02:20:57;;;;;;;24.25;20.05;;;13.00;99.90;;;;;;5124924;28;20047;-64
2022/05/07 02:23:23;;;;;;;26.50;21.58;;;13.00;99.90;;;;;;5118498;28;20040;-64
2022/05/07 02:25:49;;;;;;;23.48;20.63;;;13.00;99.90;;;;;;5122683;28;20043;-64
2022/05/07 02:28:14;;;;;;;24.30;20.30;;;13.00;99.90;;;;;;5120062;28;20048;-64
2022/05/07 02:30:41;;;;;;;24.45;19.90;;;13.10;99.90;;;;;;5117002;28;20051;-64
2022/05/07 02:33:06;;;;;;;22.23;17.85;;;13.10;99.90;;;;;;5120001;28;20079;-64
2022/05/07 02:35:32;;;;;;;25.13;19.92;;;13.10;99.90;;;;;;5128606;28;20054;-64
2022/05/07 02:37:58;;;;;;;22.38;19.73;;;13.10;99.90;;;;;;5125768;28;20107;-64
2022/05/07 02:40:24;;;;;;;26.63;19.50;;;13.10;99.90;;;;;;5124560;28;20420;-64
2022/05/07 02:42:50;;;;;;;23.42;19.67;;;13.00;99.90;;;;;;5127362;28;20075;-64
2022/05/07 02:45:16;;;;;;;24.90;20.30;;;13.00;99.90;;;;;;5127395;28;20082;-64
2022/05/07 02:47:43;;;;;;;24.65;19.95;;;13.00;99.90;;;;;;5128502;28;20131;-64
2022/05/07 02:50:10;;;;;;;26.85;20.13;;;12.90;99.90;;;;;;5124661;28;20113;-64
2022/05/07 02:52:36;;;;;;;27.10;22.10;;;12.70;99.90;;;;;;5127215;28;20039;-64
2022/05/07 02:55:04;;;;;;;26.88;21.75;;;12.80;99.90;;;;;;5128675;28;20047;-64
2022/05/07 02:57:30;;;;;;;26.77;21.95;;;12.80;99.90;;;;;;5127024;28;20043;-64
2022/05/07 02:59:56;;;;;;;26.88;20.83;;;12.90;99.90;;;;;;5122203;28;20073;-64
2022/05/07 03:02:22;;;;;;;25.02;21.30;;;12.90;99.90;;;;;;5123290;28;20044;-64
2022/05/07 03:04:48;;;;;;;26.77;22.73;;;13.00;99.90;;;;;;5127811;28;20045;-64
2022/05/07 03:07:14;;;;;;;26.83;21.40;;;13.10;99.90;;;;;;5125002;28;20055;-64
2022/05/07 03:09:40;;;;;;;26.67;22.25;;;12.90;99.90;;;;;;5121529;28;20071;-64
2022/05/07 03:12:06;;;;;;;29.38;22.83;;;12.90;99.90;;;;;;5122806;28;20113;-64
2022/05/07 03:14:32;;;;;;;25.58;21.08;;;12.90;99.90;;;;;;5127454;28;20060;-64
2022/05/07 03:16:58;;;;;;;26.83;21.65;;;12.80;99.90;;;;;;5124046;28;20040;-64
2022/05/07 03:19:24;;;;;;;26.35;22.52;;;12.90;99.90;;;;;;5126964;28;20077;-64
2022/05/07 03:21:49;;;;;;;27.88;21.75;;;12.90;99.90;;;;;;5127584;28;20043;-64
2022/05/07 03:24:15;;;;;;;27.88;23.13;;;12.90;99.90;;;;;;5125585;28;20050;-64
2022/05/07 03:26:41;;;;;;;28.00;23.13;;;13.00;99.90;;;;;;5127331;28;20043;-64
2022/05/07 03:29:07;;;;;;;27.33;21.10;;;12.90;99.90;;;;;;5128072;28;20034;-64
2022/05/07 03:31:32;;;;;;;25.92;22.70;;;13.00;99.90;;;;;;5127582;28;20406;-64
2022/05/07 03:33:58;;;;;;;26.95;21.88;;;13.00;99.90;;;;;;5121978;28;20040;-64
2022/05/07 03:36:24;;;;;;;26.27;22.63;;;12.90;99.90;;;;;;5126369;28;20051;-64
2022/05/07 03:38:50;;;;;;;28.58;22.80;;;13.20;99.90;;;;;;5117476;28;20050;-64
2022/05/07 03:41:15;;;;;;;29.17;22.80;;;13.20;99.90;;;;;;5125863;28;20039;-64
2022/05/07 03:43:41;;;;;;;26.92;23.50;;;13.20;99.90;;;;;;5125003;28;20070;-64
2022/05/07 03:46:08;;;;;;;25.20;21.83;;;13.30;99.90;;;;;;5114895;28;20078;-64
2022/05/07 03:48:34;;;;;;;26.55;21.95;;;13.30;99.90;;;;;;5126697;28;20044;-64
2022/05/07 03:51:00;;;;;;;25.88;21.33;;;13.30;99.90;;;;;;5122821;28;20126;-64
2022/05/07 03:53:29;;;;;;;27.48;22.35;;;13.30;99.90;;;;;;5125425;28;20675;-64
2022/05/07 03:55:59;;;;;;;27.90;23.00;;;13.30;99.90;;;;;;5124499;28;20048;-64
2022/05/07 03:58:26;;;;;;;26.35;22.30;;;13.30;99.90;;;;;;5117259;28;20047;-64
2022/05/07 04:00:54;;;;;;;26.25;22.42;;;13.30;99.90;;;;;;5124243;28;20048;-64
2022/05/07 04:03:20;;;;;;;26.25;23.25;;;13.30;99.90;;;;;;5126698;28;20044;-64
2022/05/07 04:05:46;;;;;;;29.65;23.20;;;13.40;99.90;;;;;;5124627;28;20074;-64
2022/05/07 04:08:12;;;;;;;27.05;23.30;;;13.30;99.90;;;;;;5123090;28;20047;-64
2022/05/07 04:10:38;;;;;;;29.60;24.00;;;13.30;99.90;;;;;;5125288;28;20089;-64
2022/05/07 04:13:04;;;;;;;26.55;23.08;;;13.30;99.90;;;;;;5143283;27;20090;-64
2022/05/07 04:15:29;;;;;;;27.40;22.55;;;13.30;99.90;;;;;;5118568;28;20054;-64
2022/05/07 04:17:55;;;;;;;26.73;22.42;;;13.20;99.90;;;;;;5124091;28;20529;-64
2022/05/07 04:20:21;;;;;;;29.25;24.38;;;13.30;99.90;;;;;;5123805;28;20043;-64
2022/05/07 04:22:47;;;;;;;26.27;22.65;;;13.30;99.90;;;;;;5119029;28;20082;-64
2022/05/07 04:25:13;;;;;;;26.95;22.48;;;13.20;99.90;;;;;;5118738;28;20044;-64
2022/05/07 04:27:39;;;;;;;27.55;21.52;;;13.30;99.90;;;;;;5126217;28;20156;-64
2022/05/07 04:30:06;;;;;;;26.05;22.30;;;13.40;99.90;;;;;;5119354;28;20083;-64
2022/05/07 04:32:31;;;;;;;26.65;22.88;;;13.30;99.90;;;;;;5138289;27;20043;-64
2022/05/07 04:34:57;;;;;;;29.95;22.20;;;13.30;99.90;;;;;;5126209;28;20048;-64
2022/05/07 04:37:24;;;;;;;29.42;24.50;;;13.30;99.90;;;;;;5120471;28;20040;-64
2022/05/07 04:39:50;;;;;;;30.35;25.23;;;13.30;99.90;;;;;;5124404;28;20488;-64
2022/05/07 04:42:15;;;;;;;30.08;23.90;;;13.20;99.90;;;;;;5120080;28;20070;-64
2022/05/07 04:44:41;;;;;;;28.25;23.85;;;13.20;99.90;;;;;;5125209;28;20048;-64
2022/05/07 04:47:07;;;;;;;31.10;24.05;;;13.30;99.90;;;;;;5117259;28;20407;-64
2022/05/07 04:49:33;;;;;;;30.77;24.25;;;13.30;99.90;;;;;;5123785;28;20043;-64
2022/05/07 04:51:59;;;;;;;31.27;24.77;;;13.30;99.90;;;;;;5121900;28;20031;-64
2022/05/07 04:54:25;;;;;;;29.75;24.95;;;13.30;99.90;;;;;;5118675;28;20131;-64
2022/05/07 04:56:52;;;;;;;29.27;24.95;;;13.30;99.90;;;;;;5122019;28;20036;-64
2022/05/07 04:59:19;;;;;;;27.35;23.75;;;13.30;99.90;;;;;;5125063;28;20119;-64
2022/05/07 05:01:45;;;;;;;32.78;26.52;;;13.30;99.90;;;;;;5119978;28;20055;-64
2022/05/07 05:04:11;;;;;;;30.13;24.60;;;13.40;99.90;;;;;;5122410;28;20051;-64
2022/05/07 05:06:38;;;;;;;31.15;25.92;;;13.50;99.90;;;;;;5118618;28;20047;-64
2022/05/07 05:09:05;;;;;;;33.65;26.55;;;13.50;99.90;;;;;;5118743;28;20079;-64
2022/05/07 05:11:31;;;;;;;29.33;25.10;;;13.50;99.90;;;;;;5122838;28;20085;-64
2022/05/07 05:13:57;;;;;;;29.08;24.58;;;13.50;99.90;;;;;;5125376;28;20107;-64
2022/05/07 05:16:23;;;;;;;34.25;25.50;;;13.50;99.90;;;;;;5125840;28;20040;-64
2022/05/07 05:18:49;;;;;;;32.28;25.40;;;13.60;99.90;;;;;;5121221;28;20039;-64
2022/05/07 05:21:15;;;;;;;30.40;25.70;;;13.60;99.90;;;;;;5123182;28;20129;-64
2022/05/07 05:23:41;;;;;;;32.67;26.98;;;13.60;99.90;;;;;;5124338;28;20042;-64
2022/05/07 05:26:06;;;;;;;31.52;26.25;;;13.60;99.90;;;;;;5123804;28;20036;-64
2022/05/07 05:28:33;;;;;;;31.08;25.98;;;13.50;99.90;;;;;;5124308;28;20043;-64
2022/05/07 05:30:59;;;;;;;30.20;24.98;;;13.50;99.90;;;;;;5125321;28;20043;-64
2022/05/07 05:33:25;;;;;;;31.20;26.48;;;13.50;99.90;;;;;;5123629;28;20070;-64
2022/05/07 05:35:51;;;;;;;32.17;26.85;;;13.50;99.90;;;;;;5136677;27;20039;-64
2022/05/07 05:38:17;;;;;;;31.20;27.02;;;13.50;99.90;;;;;;5119430;28;20039;-64
2022/05/07 05:40:43;;;;;;;32.65;26.38;;;13.40;99.90;;;;;;5119755;28;20051;-64
2022/05/07 05:43:09;;;;;;;35.25;27.77;;;13.50;99.90;;;;;;5123430;28;20103;-64
2022/05/07 05:45:35;;;;;;;30.67;25.33;;;13.50;99.90;;;;;;5119131;28;20039;-64
2022/05/07 05:48:01;;;;;;;31.90;28.10;;;13.50;99.90;;;;;;5117935;28;20035;-64
2022/05/07 05:50:30;;;;;;;31.23;27.02;;;13.60;99.90;;;;;;5120823;28;20051;-64
2022/05/07 05:52:59;;;;;;;32.63;27.65;;;13.50;99.90;;;;;;5121835;28;20036;-64
2022/05/07 05:55:25;;;;;;;32.08;26.80;;;13.60;99.90;;;;;;5124877;28;20081;-64
2022/05/07 05:57:51;;;;;;;32.90;27.90;;;13.60;99.90;;;;;;5120234;28;20123;-64
2022/05/07 06:00:17;;;;;;;30.35;26.92;;;13.70;99.90;;;;;;5120324;28;20089;-64
2022/05/07 06:02:44;;;;;;;36.28;25.92;;;13.70;99.90;;;;;;5121895;28;20047;-64
2022/05/07 06:05:14;;;;;;;30.52;25.67;;;13.70;99.90;;;;;;5124077;28;20066;-64
2022/05/07 06:07:40;;;;;;;32.13;26.77;;;13.80;99.90;;;;;;5116971;28;20091;-64
2022/05/07 06:10:06;;;;;;;29.30;25.77;;;13.90;99.90;;;;;;5130109;28;20039;-64
2022/05/07 06:12:32;;;;;;;34.30;27.50;;;13.90;99.90;;;;;;5129198;28;20073;-64
2022/05/07 06:14:58;;;;;;;29.75;24.52;;;13.90;99.90;;;;;;5128924;28;20035;-64
2022/05/07 06:17:25;;;;;;;34.60;25.80;;;14.10;99.90;;;;;;5130784;28;20044;-64
2022/05/07 06:19:51;;;;;;;28.73;24.58;;;14.10;99.90;;;;;;5124876;28;20055;-64
2022/05/07 06:22:17;;;;;;;27.73;24.45;;;14.10;99.90;;;;;;5129216;28;20048;-64
2022/05/07 06:27:28;;;;;;;29.20;24.55;;;14.30;99.90;;;;;;5126740;28;20040;-64
2022/05/07 06:29:54;;;;;;;27.88;23.15;;;14.30;99.90;;;;;;5126100;28;20050;-64
2022/05/07 06:32:20;;;;;;;28.88;24.05;;;14.40;99.90;;;;;;5130235;28;20047;-64
2022/05/07 06:34:46;;;;;;;28.42;22.55;;;14.50;99.90;;;;;;5130791;28;20042;-64
2022/05/07 06:37:12;;;;;;;29.05;23.30;;;14.60;99.90;;;;;;5131824;28;20571;-64
2022/05/07 06:39:38;;;;;;;28.92;22.10;;;14.60;99.90;;;;;;5130370;28;20051;-64
2022/05/07 06:42:05;;;;;;;26.40;22.08;;;14.70;99.90;;;;;;5130450;28;20040;-64
2022/05/07 06:44:31;;;;;;;28.33;22.25;;;14.80;99.90;;;;;;5131659;28;20095;-64
2022/05/07 06:46:57;;;;;;;29.40;21.77;;;14.80;99.90;;;;;;5130598;28;20036;-64
2022/05/07 06:49:23;;;;;;;25.95;21.00;;;14.90;99.90;;;;;;5129630;28;20048;-61
2022/05/07 06:51:49;;;;;;;24.90;21.50;;;15.00;99.90;;;;;;5126291;28;20399;-61
2022/05/07 06:54:15;;;;;;;25.85;23.10;;;15.10;99.90;;;;;;5129180;27;20063;-61
2022/05/07 06:56:41;;;;;;;26.98;23.17;;;15.10;99.90;;;;;;5122553;28;20052;-62
2022/05/07 06:59:09;;;;;;;28.73;21.83;;;15.30;99.90;;;;;;5119158;28;20043;-62
2022/05/07 07:01:36;;;;;;;27.33;22.10;;;15.30;99.90;;;;;;5142275;27;20047;-63
2022/05/07 07:04:01;;;;;;;25.17;21.67;;;15.40;99.90;;;;;;5118212;28;20067;-62
2022/05/07 07:06:28;;;;;;;29.48;23.20;;;15.40;99.90;;;;;;5124274;28;20073;-62
2022/05/07 07:08:54;;;;;;;24.67;21.30;;;15.50;99.90;;;;;;5125475;28;20043;-63
2022/05/07 07:11:24;;;;;;;23.70;20.90;;;15.50;99.90;;;;;;5129546;28;20068;-63
2022/05/07 07:13:51;;;;;;;24.63;21.10;;;15.50;99.90;;;;;;5122965;28;20404;-62
2022/05/07 07:16:18;;;;;;;28.95;22.55;;;15.60;99.90;;;;;;5127551;28;20042;-62
2022/05/07 07:18:44;;;;;;;24.52;21.08;;;15.60;99.90;;;;;;5129759;28;20051;-62
2022/05/07 07:21:11;;;;;;;26.33;22.50;;;15.70;99.90;;;;;;5124892;28;20047;-62
2022/05/07 07:23:37;;;;;;;27.60;22.70;;;15.80;99.90;;;;;;5120982;28;20056;-62
2022/05/07 07:26:04;;;;;;;26.83;22.48;;;15.80;99.90;;;;;;5125411;28;20055;-62
2022/05/07 07:28:31;;;;;;;28.02;22.88;;;15.80;99.90;;;;;;5123146;28;20492;-62
2022/05/07 07:30:58;;;;;;;24.55;21.85;;;15.80;99.90;;;;;;5142768;27;20047;-62
2022/05/07 07:33:24;;;;;;;27.65;23.50;;;15.80;99.90;;;;;;5125340;28;20496;-63
2022/05/07 07:35:50;;;;;;;27.90;23.58;;;15.80;99.90;;;;;;5125520;28;20099;-62
2022/05/07 07:38:15;;;;;;;29.25;23.88;;;15.80;99.90;;;;;;5138108;27;20040;-63
2022/05/07 07:40:43;;;;;;;27.67;23.08;;;15.80;99.90;;;;;;5127300;28;20035;-63
2022/05/07 07:43:10;;;;;;;27.15;23.25;;;15.70;99.90;;;;;;5126094;28;20170;-63
2022/05/07 07:48:20;;;;;;;26.70;22.70;;;16.00;99.90;;;;;;5125141;27;20051;-62
2022/05/07 07:50:48;;;;;;;29.27;23.50;;;16.00;99.90;;;;;;5061102;27;20048;-64
2022/05/07 07:53:14;;;;;;;32.38;23.10;;;16.00;99.90;;;;;;5071877;28;20052;-64
2022/05/07 07:55:40;;;;;;;27.20;23.10;;;16.10;99.90;;;;;;5099292;28;20174;-64
2022/05/07 07:58:07;;;;;;;27.65;22.75;;;16.20;99.90;;;;;;5100623;27;20047;-62
2022/05/07 08:00:35;;;;;;;25.38;21.35;;;16.20;99.90;;;;;;5091882;28;20055;-63
2022/05/07 08:03:04;;;;;;;24.08;21.55;;;16.20;99.90;;;;;;5111031;28;20054;-63
2022/05/07 08:05:36;;;;;;;26.77;21.95;;;16.30;99.90;;;;;;5091238;28;20048;-63
2022/05/07 08:13:33;;;;;;;23.88;20.23;;;16.50;99.90;;;;;;5129238;27;20203;-63
2022/05/07 08:16:03;;;;;;;25.98;21.33;;;16.60;99.90;;;;;;5088849;28;20624;-62
2022/05/07 08:18:29;;;;;;;25.15;18.92;;;16.60;99.90;;;;;;5114115;28;20047;-63
2022/05/07 08:20:56;;;;;;;23.55;18.83;;;16.70;99.90;;;;;;5105493;28;20051;-63
2022/05/07 08:23:22;;;;;;;22.17;17.80;;;16.90;99.90;;;;;;5113579;28;20075;-63
2022/05/07 08:25:48;;;;;;;25.27;16.60;;;16.90;99.90;;;;;;5096675;28;20593;-62
2022/05/07 08:28:15;;;;;;;20.70;16.00;;;16.90;99.90;;;;;;5115994;28;20042;-63
2022/05/07 08:30:42;;;;;;;20.85;14.57;;;17.00;99.90;;;;;;5093977;27;20047;-62
2022/05/07 08:33:07;;;;;;;25.10;15.82;;;17.10;99.90;;;;;;5118912;28;20070;-61
2022/05/07 08:35:33;;;;;;;85.78;20.30;;;17.10;99.90;;;;;;5099677;28;20047;-61
2022/05/07 08:37:59;;;;;;;18.73;14.82;;;17.30;99.90;;;;;;5113363;28;20047;-61
2022/05/07 08:40:27;;;;;;;17.90;15.15;;;17.30;99.90;;;;;;5100855;28;20153;-61
2022/05/07 08:42:56;;;;;;;18.92;15.45;;;17.30;99.90;;;;;;5108348;28;20218;-61
2022/05/07 08:45:23;;;;;;;20.15;14.98;;;17.30;99.90;;;;;;5103364;28;20133;-62
2022/05/07 08:47:52;;;;;;;17.80;14.65;;;17.30;99.90;;;;;;5101650;28;20121;-61
2022/05/07 08:50:18;;;;;;;17.52;13.90;;;17.20;99.90;;;;;;5084081;27;20142;-61
2022/05/07 08:52:45;;;;;;;21.40;14.95;;;17.20;99.90;;;;;;5097116;28;20082;-61
2022/05/07 08:55:16;;;;;;;18.95;14.68;;;17.20;99.90;;;;;;5104539;28;20035;-62
2022/05/07 08:57:44;;;;;;;17.13;13.82;;;17.20;99.90;;;;;;5095824;28;20541;-61
2022/05/07 09:00:11;;;;;;;21.23;14.90;;;17.20;99.90;;;;;;5106260;28;20039;-63
2022/05/07 09:02:45;;;;;;;19.35;14.48;;;17.20;99.90;;;;;;5098316;28;20396;-63
2022/05/07 09:05:12;;;;;;;15.60;13.35;;;17.30;99.90;;;;;;5105425;28;20036;-63
2022/05/07 09:07:41;;;;;;;18.17;13.68;;;17.40;99.90;;;;;;5112054;28;20052;-62
2022/05/07 09:10:13;;;;;;;20.60;15.23;;;17.50;99.90;;;;;;5111366;28;20118;-62
2022/05/07 09:12:39;;;;;;;18.42;14.60;;;17.50;99.90;;;;;;5080930;28;20044;-62
2022/05/07 09:15:08;;;;;;;18.17;14.63;;;17.60;99.90;;;;;;5118008;27;20107;-61
2022/05/07 09:17:36;;;;;;;18.13;15.50;;;17.50;99.90;;;;;;5083679;28;20048;-62
2022/05/07 09:20:13;;;;;;;21.15;14.50;;;17.50;99.90;;;;;;5115003;28;20063;-62
2022/05/07 09:22:49;;;;;;;20.70;13.90;;;17.50;99.90;;;;;;5080358;28;20072;-62
2022/05/07 09:25:30;;;;;;;19.33;14.60;;;17.50;99.90;;;;;;5080900;28;20539;-63
2022/05/07 09:27:56;;;;;;;17.70;13.23;;;17.50;99.90;;;;;;5090566;28;20055;-62
2022/05/07 09:30:30;;;;;;;16.95;13.77;;;17.60;99.90;;;;;;5089204;27;20571;-62
2022/05/07 09:32:57;;;;;;;19.98;15.55;;;17.60;99.90;;;;;;5098999;28;20032;-62
2022/05/07 09:35:47;;;;;;;19.15;13.80;;;17.50;99.90;;;;;;5115882;28;20039;-62
2022/05/07 09:38:15;;;;;;;17.77;13.90;;;17.60;99.90;;;;;;5086778;28;20336;-62
2022/05/07 09:40:43;;;;;;;18.83;14.15;;;17.70;99.90;;;;;;5103220;28;20043;-65
2022/05/07 09:43:10;;;;;;;20.52;13.48;;;17.70;99.90;;;;;;5084754;28;20359;-62
2022/05/07 09:45:37;;;;;;;17.52;12.90;;;17.70;99.90;;;;;;5096235;28;20040;-62
2022/05/07 09:48:05;;;;;;;14.18;9.93;;;17.70;99.90;;;;;;5082447;28;20535;-61
2022/05/07 09:58:37;;;;;;;14.25;11.02;;;18.20;99.90;;;;;;5096948;28;20051;-61
2022/05/07 10:01:21;;;;;;;14.60;10.88;;;18.20;99.90;;;;;;5119810;27;20055;-61
2022/05/07 10:04:28;;;;;;;18.58;11.10;;;18.40;99.90;;;;;;5102863;28;20458;-61
2022/05/07 10:07:24;;;;;;;15.63;10.98;;;18.30;99.90;;;;;;5101054;28;20051;-61
2022/05/07 10:10:25;;;;;;;19.17;11.70;;;18.30;99.90;;;;;;5108144;28;20236;-60
2022/05/07 10:12:54;;;;;;;18.50;13.38;;;18.50;99.90;;;;;;5090190;28;20085;-61
2022/05/07 10:15:23;;;;;;;18.08;12.50;;;18.40;99.90;;;;;;5091420;28;20059;-62
2022/05/07 10:18:14;;;;;;;17.50;12.90;;;18.60;99.90;;;;;;5075832;28;20048;-61
2022/05/07 10:20:45;;;;;;;19.85;13.18;;;18.60;99.90;;;;;;5084133;28;20044;-64
2022/05/07 10:23:26;;;;;;;20.40;14.00;;;18.80;99.90;;;;;;5088607;28;20519;-61
2022/05/07 10:25:56;;;;;;;19.85;14.15;;;18.80;99.90;;;;;;5090280;28;20052;-62
2022/05/07 10:28:22;;;;;;;18.40;13.27;;;18.60;99.90;;;;;;5110613;28;20048;-61
2022/05/07 10:30:50;;;;;;;20.90;17.55;;;18.80;99.90;;;;;;5097376;28;20041;-61
2022/05/07 10:33:18;;;;;;;23.23;17.95;;;18.90;99.90;;;;;;5084779;28;20055;-61
2022/05/07 10:35:47;;;;;;;21.55;18.65;;;19.10;99.90;;;;;;5093258;28;20101;-64
2022/05/07 10:38:37;;;;;;;20.13;16.73;;;19.30;99.90;;;;;;5092329;28;20055;-64
2022/05/07 10:41:09;;;;;;;;;;;19.30;99.90;;;;;;5093342;28;20427;-64
2022/05/07 10:43:42;;;;;;;22.98;16.13;;;19.40;99.90;;;;;;5100606;28;20524;-64
2022/05/07 10:46:20;;;;;;;19.33;17.05;;;19.40;99.90;;;;;;5088905;28;20037;-64
2022/05/07 10:48:50;;;;;;;19.70;17.05;;;19.30;99.90;;;;;;5088102;28;20080;-64
2022/05/07 10:51:39;;;;;;;21.02;16.13;;;19.30;99.90;;;;;;5059332;28;20133;-64
2022/05/07 10:54:22;;;;;;;21.95;16.77;;;19.10;99.90;;;;;;5082843;28;20104;-64
2022/05/07 10:56:52;;;;;;;20.65;18.45;;;19.30;99.90;;;;;;5088345;28;20419;-64
2022/05/07 10:59:20;;;;;;;20.20;17.33;;;19.40;99.90;;;;;;5091669;28;20083;-64
2022/05/07 11:01:46;;;;;;;20.38;16.52;;;19.30;99.90;;;;;;5087448;28;20048;-65
2022/05/07 11:04:13;;;;;;;18.55;15.70;;;19.50;99.90;;;;;;5097989;28;20057;-61
2022/05/07 11:06:47;;;;;;;22.27;16.42;;;19.60;99.90;;;;;;5097118;28;20062;-61
2022/05/07 11:09:26;;;;;;;17.48;15.65;;;19.70;99.90;;;;;;5082347;28;20048;-61
2022/05/07 11:11:54;;;;;;;18.77;14.50;;;19.60;99.90;;;;;;5095905;28;20048;-62
2022/05/07 11:14:30;;;;;;;17.92;14.95;;;19.60;99.90;;;;;;5090721;28;20047;-61
2022/05/07 11:16:57;;;;;;;21.98;15.13;;;19.70;99.90;;;;;;5110310;28;20079;-62
2022/05/07 11:19:32;;;;;;;19.70;15.10;;;19.80;99.90;;;;;;5091710;28;20040;-62
2022/05/07 11:22:02;;;;;;;19.20;15.93;;;19.90;99.90;;;;;;5112157;28;20075;-62
2022/05/07 11:24:32;;;;;;;20.75;18.10;;;20.10;99.90;;;;;;5090362;28;20052;-63
2022/05/07 11:27:02;;;;;;;19.50;17.25;;;19.80;99.90;;;;;;5114045;28;20477;-62
2022/05/07 11:29:29;;;;;;;25.20;17.48;;;19.90;99.90;;;;;;5086323;28;20554;-62
2022/05/07 11:31:55;;;;;;;18.70;15.82;;;20.30;99.90;;;;;;5117830;28;20043;-62
2022/05/07 11:34:32;;;;;;;18.30;15.02;;;20.40;99.90;;;;;;5088679;28;20062;-62
2022/05/07 11:37:15;;;;;;;18.70;15.95;;;20.70;99.90;;;;;;5111409;28;20367;-62
2022/05/07 11:39:54;;;;;;;104.38;19.98;;;21.00;99.90;;;;;;5096230;27;20055;-63
2022/05/07 11:42:43;;;;;;;18.40;14.90;;;20.70;99.90;;;;;;5113630;28;20048;-62
2022/05/07 11:45:29;;;;;;;21.10;17.45;;;21.00;99.90;;;;;;5105847;28;20296;-63
2022/05/07 11:47:56;;;;;;;23.23;17.67;;;21.30;99.90;;;;;;5093384;27;20119;-63
2022/05/07 11:50:31;;;;;;;17.92;15.88;;;21.30;99.90;;;;;;5072918;28;20048;-62
2022/05/07 11:53:09;;;;;;;26.90;21.02;;;21.40;99.90;;;;;;5105121;28;20506;-63
2022/05/07 11:55:34;;;;;;;19.50;15.30;;;21.60;99.90;;;;;;5104721;28;20089;-64
2022/05/07 11:58:16;;;;;;;19.20;15.45;;;21.30;99.90;;;;;;5094849;28;20056;-62
2022/05/07 12:00:43;;;;;;;25.25;21.05;;;21.20;99.90;;;;;;5094564;28;20044;-61
2022/05/07 12:03:09;;;;;;;26.27;21.48;;;21.50;99.90;;;;;;5099715;28;20149;-62
2022/05/07 12:05:43;;;;;;;34.58;22.23;;;21.70;99.90;;;;;;5102361;28;20032;-63
2022/05/07 12:08:33;;;;;;;290.05;39.70;;;21.80;99.90;;;;;;5100367;28;20039;-61
2022/05/07 12:10:59;;;;;;;;;;;21.80;99.90;;;;;;5112388;27;20065;-62
2022/05/07 12:13:25;;;;;;;35.35;26.75;;;21.40;99.90;;;;;;5108141;27;20430;-62
2022/05/07 12:18:38;;;;;;;32.15;26.77;;;21.10;99.90;;;;;;5095686;27;20055;-61
2022/05/07 12:21:04;;;;;;;58.05;25.88;;;21.20;99.90;;;;;;5099837;28;20485;-63
2022/05/07 12:31:43;;;;;;;25.27;21.83;;;21.40;99.90;;;;;;5090563;28;20140;-63
2022/05/07 12:34:09;;;;;;;28.77;23.30;;;21.50;99.90;;;;;;5107606;27;20115;-63
2022/05/07 12:36:35;;;;;;;25.88;22.15;;;21.80;99.90;;;;;;5099212;28;20070;-62
2022/05/07 12:39:00;;;;;;;27.45;22.02;;;21.80;99.90;;;;;;5090965;27;20058;-63
2022/05/07 12:41:27;;;;;;;25.98;21.48;;;21.50;99.90;;;;;;5102745;28;20054;-63
2022/05/07 12:43:57;;;;;;;28.48;22.48;;;21.40;99.90;;;;;;5094826;27;20059;-63
2022/05/07 12:46:24;;;;;;;29.88;22.40;;;21.30;99.90;;;;;;5087884;28;20113;-62
2022/05/07 12:48:50;;;;;;;26.42;21.88;;;21.50;99.90;;;;;;5113555;27;20081;-62
2022/05/07 12:51:16;;;;;;;25.88;21.85;;;21.60;99.90;;;;;;5084745;28;20048;-63
2022/05/07 12:53:42;;;;;;;26.60;23.23;;;21.70;99.90;;;;;;5071919;27;20595;-63
2022/05/07 12:56:08;;;;;;;32.95;24.80;;;21.90;99.90;;;;;;5105702;28;20077;-63
2022/05/07 12:58:34;;;;;;;29.75;24.67;;;22.20;99.90;;;;;;5105122;27;20050;-63
2022/05/07 13:01:00;;;;;;;30.88;23.77;;;22.00;99.90;;;;;;5090476;28;20044;-63
2022/05/07 13:03:26;;;;;;;26.92;23.52;;;22.10;99.90;;;;;;5094204;27;20047;-63
2022/05/07 13:05:52;;;;;;;35.22;26.92;;;21.90;99.90;;;;;;5129141;27;20048;-63
2022/05/07 13:08:18;;;;;;;35.55;27.10;;;21.70;99.90;;;;;;5111314;27;20084;-63
2022/05/07 13:10:44;;;;;;;36.80;26.17;;;21.80;99.90;;;;;;5093442;28;20048;-64